Prince Alfred: Past 24 Hour Conditions

 

Stony Rapids Airport

10:00 PM CST 24 April 2014
This table is a summary of hourly weather conditions for the past 24 hours.
Date / Time
(CST)
Wind(knots) Conditions Visibility(km) Pressure(kPa) Air tempC) Relative humidity(%) Dew pointC) Wind Chill
24 April 2014
22:00 E 9 Clear 16 102.4 -3 61 -9 -8
21:00 E 8 Clear 16 102.4 -2 60 -9 -7
20:00 E 10 Sunny 16 102.4 0 54 -9 -5
19:00 E 13 Sunny 16 102.3 1 50 -8 *
18:00 E 14 gust 21 Sunny 16 102.3 1 49 -8 *
17:00 E 13 gust 20 Sunny 16 102.3 2 50 -8 *
16:00 E 12 gust 18 Sunny 16 102.3 1 51 -8 *
15:00 E 13 gust 21 Sunny 16 102.3 1 50 -9 *
14:00 E 13 gust 18 Sunny 16 102.3 0 51 -9 *
13:00 E 13 gust 19 Sunny 16 102.4 -1 55 -9 -7
12:00 E 14 gust 20 Sunny 16 102.4 -2 60 -9 -9
11:00 E 16 gust 21 Sunny 16 102.5 -4 61 -10 -11
10:00 E 15 gust 20 Sunny 16 102.6 -5 65 -11 -13
9:00 E 15 gust 21 Sunny 16 102.5 -6 67 -11 -14
8:00 E 13 gust 19 Sunny 16 102.5 -6 69 -11 -14
7:00 E 9 Sunny 16 102.5 -7 77 -11 -14
6:00 E 8 Sunny 16 102.5 -8 82 -11 -14
5:00 E 9 Clear 16 102.5 -7 81 -10 -14
4:00 ENE 11 gust 16 Clear 16 102.4 -6 78 -10 -14
3:00 E 11 Clear 16 102.4 -6 75 -9 -13
2:00 E 10 gust 16 Clear 16 102.5 -5 73 -9 -11
1:00 ENE 10 gust 17 Clear 16 102.5 -4 71 -8 -10
0:00 E 10 gust 18 Clear 16 102.5 -3 68 -8 -8
23 April 2014
23:00 E 11 gust 16 Clear 16 102.4 -2 66 -8 -8
22:00 E 10 gust 15 Clear 16 102.4 -2 67 -7 -7
 
Map of Mackenzie - Mackenzie River marine weather areas Great Slave Lake - 45141 Great Slave Lake North Arm - 45150 Herschel Island Komakuk Beach Shingle Point Airport Aklavik Airport Cape Parry Airport Fort Good Hope Airport Tulita Airport Fort Providence Fort Reliance Fort Resolution Airport Fort Simpson Airport Hay River/Merlyn Carter Airport Inner Whaleback Rocks Inuvik Airport Keats Point Norman Wells Airport Paulatuk Airport Pelly Island Tuktoyaktuk Airport Wrigley Airport Yellowknife Airport Kugluktuk Airport Hat Island Cambridge Bay Airport Cape Peel West Stefansson Island Ulukhaktok Airport Sachs Harbour Airport Thomsen River Egg Island Fort Chipewyan Airport Stony Rapids Airport Liverpool Bay Little Chicago Lutselke Airport Storm Hills Croker River Prairie River Uranium City Bathurst Inlet Gateshead Island
Legend: buoyBuoy land stationLand Station